createdAt,value
2018-11-28T00:00:59.324Z,98464.33
2018-11-28T00:02:02.461Z,98470.20
2018-11-28T00:03:05.530Z,98476.41
2018-11-28T00:04:08.536Z,98473.99
2018-11-28T00:05:13.700Z,98471.56
2018-11-28T00:06:17.429Z,98469.97
2018-11-28T00:07:21.248Z,98470.22
2018-11-28T00:08:24.387Z,98467.81
2018-11-28T00:09:27.934Z,98468.89
2018-11-28T00:10:31.077Z,98466.76
2018-11-28T00:11:34.147Z,98460.06
2018-11-28T00:12:39.170Z,98461.95
2018-11-28T00:13:44.400Z,98460.33
2018-11-28T00:14:47.377Z,98461.41
2018-11-28T00:15:50.738Z,98462.45
2018-11-28T00:16:54.226Z,98454.70
2018-11-28T00:17:57.294Z,98455.55
2018-11-28T00:19:00.770Z,98454.20
2018-11-28T00:20:04.125Z,98454.98
2018-11-28T00:21:07.180Z,98455.25
2018-11-28T00:22:10.237Z,98448.27
2018-11-28T00:23:13.423Z,98445.58
2018-11-28T00:24:17.273Z,98450.68
2018-11-28T00:25:20.806Z,98446.14
2018-11-28T00:26:24.053Z,98439.16
2018-11-28T00:27:26.952Z,98437.56
2018-11-28T00:28:30.625Z,98440.52
2018-11-28T00:29:34.844Z,98442.38
2018-11-28T00:30:38.030Z,98442.14
2018-11-28T00:31:41.902Z,98436.78
2018-11-28T00:32:45.111Z,98441.88
2018-11-28T00:33:48.063Z,98436.53
2018-11-28T00:34:54.836Z,98436.27
2018-11-28T00:35:57.955Z,98433.56
2018-11-28T00:37:01.192Z,98433.02
2018-11-28T00:38:04.090Z,98431.16
2018-11-28T00:39:07.295Z,98437.58
2018-11-28T00:40:10.175Z,98434.91
2018-11-28T00:41:13.788Z,98437.30
2018-11-28T00:42:16.778Z,98441.87
2018-11-28T00:43:19.642Z,98432.48
2018-11-28T00:44:23.515Z,98432.74
2018-11-28T00:45:31.075Z,98429.22
2018-11-28T00:46:34.145Z,98431.13
2018-11-28T00:47:37.729Z,98437.27
2018-11-28T00:48:42.354Z,98440.72
2018-11-28T00:49:47.000Z,98441.54
2018-11-28T00:50:50.111Z,98439.92
2018-11-28T00:51:53.303Z,98433.49
2018-11-28T00:52:56.354Z,98438.84
2018-11-28T00:53:59.953Z,98438.30
2018-11-28T00:55:09.005Z,98435.62
2018-11-28T00:56:12.387Z,98439.63
2018-11-28T00:57:15.549Z,98439.34
2018-11-28T00:58:19.785Z,98439.08
2018-11-28T00:59:23.045Z,98437.97
2018-11-28T01:00:28.456Z,98438.23
2018-11-28T01:01:31.572Z,98442.81
2018-11-28T01:02:34.463Z,98436.11
2018-11-28T01:03:38.729Z,98433.95
2018-11-28T01:04:42.167Z,98435.29
2018-11-28T01:05:45.439Z,98432.88
2018-11-28T01:06:48.452Z,98430.48
2018-11-28T01:07:51.377Z,98435.30
2018-11-28T01:08:54.325Z,98432.08
2018-11-28T01:09:57.574Z,98431.52
2018-11-28T01:11:01.181Z,98439.56
2018-11-28T01:12:04.090Z,98436.86
2018-11-28T01:13:07.413Z,98436.84
2018-11-28T01:14:11.688Z,98437.11
2018-11-28T01:15:15.220Z,98441.92
2018-11-28T01:16:18.725Z,98435.22
2018-11-28T01:17:22.643Z,98432.55
2018-11-28T01:18:26.387Z,98429.84
2018-11-28T01:19:30.511Z,98427.70
2018-11-28T01:20:36.028Z,98428.23
2018-11-28T01:21:39.441Z,98433.88
2018-11-28T01:22:42.778Z,98432.03
2018-11-28T01:23:46.231Z,98432.56
2018-11-28T01:24:49.555Z,98423.70
2018-11-28T01:25:52.882Z,98427.46
2018-11-28T01:26:56.839Z,98424.77
2018-11-28T01:27:59.954Z,98430.39
2018-11-28T01:29:03.731Z,98427.98
2018-11-28T01:30:08.981Z,98428.23
2018-11-28T01:31:14.394Z,98430.67
2018-11-28T01:32:20.246Z,98430.41
2018-11-28T01:33:27.536Z,98433.60
2018-11-28T01:34:33.633Z,98444.61
2018-11-28T01:35:37.420Z,98443.58
2018-11-28T01:36:42.577Z,98449.47
2018-11-28T01:37:46.531Z,98448.65
2018-11-28T01:38:49.556Z,98448.63
2018-11-28T01:39:52.957Z,98452.14
2018-11-28T01:40:56.262Z,98446.50
2018-11-28T01:41:59.934Z,98448.35
2018-11-28T01:43:05.097Z,98442.73
2018-11-28T01:44:10.299Z,98453.22
2018-11-28T01:45:13.796Z,98446.53
2018-11-28T01:46:17.028Z,98445.17
2018-11-28T01:47:20.244Z,98450.53
2018-11-28T01:48:23.807Z,98452.39
2018-11-28T01:49:28.533Z,98453.22
2018-11-28T01:50:31.913Z,98449.70
2018-11-28T01:51:35.529Z,98447.29
2018-11-28T01:52:38.827Z,98443.28
2018-11-28T01:53:41.713Z,98451.33
2018-11-28T01:54:44.935Z,98456.69
2018-11-28T01:55:49.969Z,98452.67
2018-11-28T01:56:53.858Z,98444.89
2018-11-28T01:57:56.720Z,98449.47
2018-11-28T01:58:59.624Z,98440.61
2018-11-28T02:00:02.792Z,98435.80
2018-11-28T02:01:08.936Z,98436.86
2018-11-28T02:02:14.969Z,98440.09
2018-11-28T02:03:18.199Z,98441.66
2018-11-28T02:04:22.121Z,98440.63
2018-11-28T02:05:25.280Z,98436.06
2018-11-28T02:06:28.842Z,98446.23
2018-11-28T02:07:31.901Z,98438.98
2018-11-28T02:08:36.006Z,98427.46
2018-11-28T02:09:41.348Z,98440.59
2018-11-28T02:10:45.946Z,98440.30
2018-11-28T02:11:49.289Z,98435.50
2018-11-28T02:12:52.665Z,98441.64
2018-11-28T02:13:55.717Z,98439.51
2018-11-28T02:14:59.939Z,98442.98
2018-11-28T02:16:03.749Z,98438.73
2018-11-28T02:17:07.919Z,98436.81
2018-11-28T02:18:10.842Z,98439.77
2018-11-28T02:19:14.825Z,98440.05
2018-11-28T02:20:18.661Z,98446.20
2018-11-28T02:21:22.064Z,98443.25
2018-11-28T02:22:26.410Z,98442.97
2018-11-28T02:23:30.584Z,98441.11
2018-11-28T02:24:33.474Z,98442.73
2018-11-28T02:25:36.450Z,98448.61
2018-11-28T02:26:39.523Z,98439.20
2018-11-28T02:27:43.663Z,98442.42
2018-11-28T02:28:47.759Z,98445.61
2018-11-28T02:29:52.294Z,98439.97
2018-11-28T02:30:55.273Z,98441.59
2018-11-28T02:31:58.838Z,98441.61
2018-11-28T02:33:01.832Z,98442.95
2018-11-28T02:34:05.497Z,98441.09
2018-11-28T02:35:09.439Z,98438.93
2018-11-28T02:36:12.371Z,98441.38
2018-11-28T02:37:15.382Z,98440.28
2018-11-28T02:38:18.365Z,98439.23
2018-11-28T02:39:21.817Z,98431.73
2018-11-28T02:40:25.406Z,98441.89
2018-11-28T02:41:28.422Z,98439.98
2018-11-28T02:42:31.271Z,98433.07
2018-11-28T02:43:34.307Z,98438.73
2018-11-28T02:44:38.118Z,98440.09
2018-11-28T02:45:42.194Z,98431.22
2018-11-28T02:46:45.958Z,98440.87
2018-11-28T02:47:48.861Z,98447.53
2018-11-28T02:48:51.710Z,98441.64
2018-11-28T02:49:54.880Z,98439.49
2018-11-28T02:50:58.059Z,98437.59
2018-11-28T02:52:01.090Z,98435.47
2018-11-28T02:53:04.429Z,98427.92
2018-11-28T02:54:07.472Z,98425.03
2018-11-28T02:55:11.479Z,98433.87
2018-11-28T02:56:14.955Z,98431.16
2018-11-28T02:57:18.053Z,98429.02
2018-11-28T02:58:21.684Z,98430.36
2018-11-28T02:59:27.630Z,98426.35
2018-11-28T03:00:30.902Z,98424.75
2018-11-28T03:01:34.487Z,98418.05
2018-11-28T03:02:38.452Z,98431.17
2018-11-28T03:03:41.786Z,98420.76
2018-11-28T03:04:44.940Z,98420.48
2018-11-28T03:05:48.502Z,98417.53
2018-11-28T03:06:51.672Z,98419.98
2018-11-28T03:07:55.053Z,98427.21
2018-11-28T03:08:58.825Z,98426.70
2018-11-28T03:10:01.849Z,98424.27
2018-11-28T03:11:04.823Z,98428.29
2018-11-28T03:12:08.972Z,98426.70
2018-11-28T03:13:13.287Z,98424.81
2018-11-28T03:14:16.860Z,98430.70
2018-11-28T03:15:24.849Z,98430.14
2018-11-28T03:16:28.742Z,98429.33
2018-11-28T03:17:33.206Z,98429.03
2018-11-28T03:18:36.984Z,98427.11
2018-11-28T03:19:40.341Z,98424.95
2018-11-28T03:20:43.328Z,98431.91
2018-11-28T03:21:47.658Z,98422.02
2018-11-28T03:22:52.353Z,98427.11
2018-11-28T03:23:57.102Z,98419.62
2018-11-28T03:25:00.738Z,98425.79
2018-11-28T03:26:03.841Z,98424.43
2018-11-28T03:27:06.746Z,98423.89
2018-11-28T03:28:09.649Z,98424.16
2018-11-28T03:29:13.101Z,98422.30
2018-11-28T03:30:16.102Z,98427.66
2018-11-28T03:31:19.308Z,98428.47
2018-11-28T03:32:22.736Z,98427.69
2018-11-28T03:33:25.805Z,98431.13
2018-11-28T03:34:29.608Z,98434.89
2018-11-28T03:35:32.504Z,98431.16
2018-11-28T03:36:35.457Z,98431.44
2018-11-28T03:37:38.810Z,98432.75
2018-11-28T03:38:42.230Z,98436.52
2018-11-28T03:39:46.454Z,98431.95
2018-11-28T03:40:49.713Z,98436.78
2018-11-28T03:41:52.629Z,98438.63
2018-11-28T03:42:55.538Z,98440.25
2018-11-28T03:43:59.697Z,98442.44
2018-11-28T03:45:02.811Z,98440.05
2018-11-28T03:46:05.711Z,98436.53
2018-11-28T03:47:08.679Z,98436.80
2018-11-28T03:48:11.920Z,98440.04
2018-11-28T03:49:16.307Z,98433.57
2018-11-28T03:50:20.681Z,98437.09
2018-11-28T03:51:25.245Z,98434.41
2018-11-28T03:52:29.105Z,98444.06
2018-11-28T03:53:32.481Z,98443.23
2018-11-28T03:54:35.427Z,98443.50
2018-11-28T03:55:38.300Z,98439.98
2018-11-28T03:56:43.074Z,98446.14
2018-11-28T03:57:46.601Z,98441.05
2018-11-28T03:58:49.654Z,98442.14
2018-11-28T03:59:52.781Z,98445.63
2018-11-28T04:00:56.090Z,98441.61
2018-11-28T04:02:00.449Z,98444.55
2018-11-28T04:03:05.109Z,98448.56
2018-11-28T04:04:08.475Z,98449.36
2018-11-28T04:05:11.903Z,98444.02
2018-11-28T04:06:15.107Z,98444.59
2018-11-28T04:07:18.142Z,98443.80
2018-11-28T04:08:22.267Z,98441.62
2018-11-28T04:09:26.694Z,98444.31
2018-11-28T04:10:31.283Z,98446.22
2018-11-28T04:11:34.481Z,98435.20
2018-11-28T04:12:37.679Z,98437.08
2018-11-28T04:13:40.524Z,98433.84
2018-11-28T04:14:44.232Z,98437.87
2018-11-28T04:15:48.306Z,98433.05
2018-11-28T04:16:51.483Z,98439.49
2018-11-28T04:17:54.912Z,98442.42
2018-11-28T04:18:57.951Z,98436.76
2018-11-28T04:20:01.676Z,98436.48
2018-11-28T04:21:07.778Z,98435.40
2018-11-28T04:22:12.021Z,98439.14
2018-11-28T04:23:15.306Z,98437.80
2018-11-28T04:24:18.491Z,98434.86
2018-11-28T04:25:21.387Z,98428.70
2018-11-28T04:26:24.295Z,98432.72
2018-11-28T04:27:28.037Z,98427.36
2018-11-28T04:28:31.220Z,98426.81
2018-11-28T04:29:34.230Z,98432.17
2018-11-28T04:30:37.111Z,98422.53
2018-11-28T04:31:40.399Z,98421.73
2018-11-28T04:32:44.984Z,98423.36
2018-11-28T04:33:48.457Z,98425.20
2018-11-28T04:34:51.783Z,98423.63
2018-11-28T04:35:54.696Z,98427.13
2018-11-28T04:36:57.931Z,98426.34
2018-11-28T04:38:01.626Z,98422.02
2018-11-28T04:39:07.278Z,98418.80
2018-11-28T04:40:13.668Z,98429.25
2018-11-28T04:41:18.236Z,98424.43
2018-11-28T04:42:22.513Z,98429.55
2018-11-28T04:43:25.446Z,98419.11
2018-11-28T04:44:28.503Z,98431.19
2018-11-28T04:45:32.377Z,98432.49
2018-11-28T04:46:36.602Z,98434.11
2018-11-28T04:47:40.262Z,98432.51
2018-11-28T04:48:43.142Z,98437.89
2018-11-28T04:49:46.043Z,98438.70
2018-11-28T04:50:49.215Z,98440.30
2018-11-28T04:51:52.994Z,98440.81
2018-11-28T04:52:56.695Z,98439.49
2018-11-28T04:53:59.595Z,98442.73
2018-11-28T04:55:02.929Z,98447.27
2018-11-28T04:56:07.070Z,98439.23
2018-11-28T04:57:11.630Z,98445.67
2018-11-28T04:58:15.892Z,98444.59
2018-11-28T04:59:21.406Z,98453.16
2018-11-28T05:00:24.815Z,98456.92
2018-11-28T05:01:28.595Z,98452.61
2018-11-28T05:02:31.652Z,98449.14
2018-11-28T05:03:34.545Z,98461.72
2018-11-28T05:04:38.759Z,98455.55
2018-11-28T05:05:43.374Z,98459.84
2018-11-28T05:06:46.447Z,98459.83
2018-11-28T05:07:50.560Z,98462.76
2018-11-28T05:08:53.495Z,98453.95
2018-11-28T05:09:57.380Z,98458.28
2018-11-28T05:11:01.564Z,98449.67
2018-11-28T05:12:06.909Z,98444.30
2018-11-28T05:13:10.053Z,98444.27
2018-11-28T05:14:14.663Z,98444.30
2018-11-28T05:15:18.921Z,98437.06
2018-11-28T05:16:22.272Z,98438.91
2018-11-28T05:17:25.469Z,98444.26
2018-11-28T05:18:29.403Z,98442.41
2018-11-28T05:19:32.777Z,98446.69
2018-11-28T05:20:36.322Z,98438.12
2018-11-28T05:21:39.165Z,98451.56
2018-11-28T05:22:42.021Z,98442.17
2018-11-28T05:23:45.391Z,98445.63
2018-11-28T05:24:49.820Z,98445.35
2018-11-28T05:25:54.994Z,98440.84
2018-11-28T05:26:59.229Z,98434.12
2018-11-28T05:28:02.174Z,98424.48
2018-11-28T05:29:05.176Z,98430.67
2018-11-28T05:30:08.218Z,98433.05
2018-11-28T05:31:12.244Z,98434.89
2018-11-28T05:32:18.380Z,98430.08
2018-11-28T05:33:22.815Z,98429.27
2018-11-28T05:34:26.631Z,98435.73
2018-11-28T05:35:29.515Z,98431.73
2018-11-28T05:36:32.408Z,98429.58
2018-11-28T05:37:35.596Z,98429.06
2018-11-28T05:38:39.716Z,98434.14
2018-11-28T05:39:43.534Z,98426.88
2018-11-28T05:40:46.439Z,98438.95
2018-11-28T05:41:49.388Z,98433.05
2018-11-28T05:42:53.478Z,98430.89
2018-11-28T05:43:58.143Z,98429.25
2018-11-28T05:45:01.866Z,98431.16
2018-11-28T05:46:04.757Z,98435.73
2018-11-28T05:47:07.751Z,98432.80
2018-11-28T05:48:10.792Z,98433.83
2018-11-28T05:49:15.220Z,98438.13
2018-11-28T05:50:18.819Z,98433.59
2018-11-28T05:51:21.806Z,98436.81
2018-11-28T05:52:24.947Z,98443.22
2018-11-28T05:53:27.950Z,98440.25
2018-11-28T05:54:31.864Z,98437.55
2018-11-28T05:55:36.640Z,98440.53
2018-11-28T05:56:41.709Z,98444.06
2018-11-28T05:57:49.036Z,98443.23
2018-11-28T05:58:52.597Z,98445.33
2018-11-28T05:59:55.629Z,98449.42
2018-11-28T06:00:58.913Z,98450.78
2018-11-28T06:02:02.457Z,98458.26
2018-11-28T06:03:07.026Z,98460.66
2018-11-28T06:04:10.150Z,98463.06
2018-11-28T06:05:14.372Z,98461.20
2018-11-28T06:06:17.353Z,98463.34
2018-11-28T06:07:20.297Z,98463.89
2018-11-28T06:08:23.194Z,98459.32
2018-11-28T06:09:30.659Z,98459.88
2018-11-28T06:10:33.717Z,98460.38
2018-11-28T06:11:37.929Z,98466.00
2018-11-28T06:12:45.373Z,98466.80
2018-11-28T06:13:49.224Z,98464.97
2018-11-28T06:14:52.766Z,98462.02
2018-11-28T06:15:56.821Z,98454.23
2018-11-28T06:17:00.131Z,98446.76
2018-11-28T06:18:04.006Z,98450.23
2018-11-28T06:19:11.195Z,98444.88
2018-11-28T06:20:14.384Z,98445.93
2018-11-28T06:21:18.344Z,98451.88
2018-11-28T06:22:29.488Z,98455.35
2018-11-28T06:23:33.184Z,98455.63
2018-11-28T06:24:36.949Z,98453.48
2018-11-28T06:25:40.505Z,98454.84
2018-11-28T06:26:44.398Z,98452.39
2018-11-28T06:27:47.367Z,98451.03
2018-11-28T06:28:51.299Z,98452.92
2018-11-28T06:29:54.693Z,98451.86
2018-11-28T06:43:55.618Z,98464.48
2018-11-28T06:45:03.331Z,98465.35
2018-11-28T06:46:07.733Z,98470.15
2018-11-28T06:47:10.651Z,98469.09
2018-11-28T06:48:14.243Z,98473.13
2018-11-28T06:49:17.822Z,98468.84
2018-11-28T06:50:20.745Z,98466.97
2018-11-28T06:51:26.551Z,98463.23
2018-11-28T06:52:30.074Z,98466.97
2018-11-28T06:53:33.190Z,98469.66
2018-11-28T06:54:36.150Z,98472.88
2018-11-28T06:55:39.424Z,98467.28
2018-11-28T06:56:44.666Z,98467.28
2018-11-28T06:57:47.866Z,98471.33
2018-11-28T06:58:51.450Z,98469.42
2018-11-28T06:59:55.563Z,98469.16
2018-11-28T07:00:58.612Z,98465.68
2018-11-28T07:02:02.100Z,98467.81
2018-11-28T07:03:05.080Z,98472.11
2018-11-28T07:04:08.726Z,98467.53
2018-11-28T07:05:13.926Z,98476.13
2018-11-28T07:06:17.182Z,98470.50
2018-11-28T07:07:21.176Z,98481.51
2018-11-28T07:08:24.741Z,98482.57
2018-11-28T07:09:27.708Z,98484.44
2018-11-28T07:10:31.468Z,98478.53
2018-11-28T07:11:36.548Z,98483.38
2018-11-28T07:12:41.044Z,98476.67
2018-11-28T07:13:44.280Z,98483.11
2018-11-28T07:14:47.793Z,98484.19
2018-11-28T07:15:50.846Z,98488.76
2018-11-28T07:16:55.230Z,98481.79
2018-11-28T07:17:59.980Z,98481.51
2018-11-28T07:19:04.251Z,98480.71
2018-11-28T07:20:07.949Z,98485.25
2018-11-28T07:21:11.625Z,98489.27
2018-11-28T07:22:14.764Z,98496.28
2018-11-28T07:23:17.709Z,98495.47
2018-11-28T07:24:21.425Z,98495.70
2018-11-28T07:25:25.214Z,98500.55
2018-11-28T07:26:28.969Z,98500.55
2018-11-28T07:27:32.364Z,98497.05
2018-11-28T07:28:35.342Z,98501.91
2018-11-28T07:29:38.965Z,98496.58
2018-11-28T07:30:45.072Z,98503.83
2018-11-28T07:31:48.811Z,98505.16
2018-11-28T07:32:53.314Z,98506.49
2018-11-28T07:33:57.488Z,98504.89
2018-11-28T07:35:00.475Z,98510.53
2018-11-28T07:36:03.520Z,98505.97
2018-11-28T07:37:06.953Z,98511.33
2018-11-28T07:38:11.360Z,98509.21
2018-11-28T07:39:15.854Z,98512.69
2018-11-28T07:40:20.330Z,98511.34
2018-11-28T07:41:24.117Z,98514.58
2018-11-28T07:42:27.305Z,98512.67
2018-11-28T07:43:30.458Z,98512.67
2018-11-28T07:44:33.650Z,98519.39
2018-11-28T07:45:38.705Z,98516.98
2018-11-28T07:46:43.787Z,98516.98
2018-11-28T07:47:47.887Z,98522.06
2018-11-28T07:48:51.170Z,98517.26
2018-11-28T07:49:54.812Z,98518.05
2018-11-28T07:50:57.977Z,98522.37
2018-11-28T07:52:02.048Z,98518.35
2018-11-28T07:53:05.689Z,98523.17
2018-11-28T07:54:10.293Z,98520.48
2018-11-28T07:55:14.027Z,98521.03
2018-11-28T07:56:17.286Z,98525.36
2018-11-28T07:57:21.338Z,98524.02
2018-11-28T07:58:24.502Z,98520.78
2018-11-28T07:59:29.658Z,98527.21
2018-11-28T08:00:36.002Z,98525.11
2018-11-28T08:01:40.547Z,98526.50
2018-11-28T08:02:44.230Z,98533.48
2018-11-28T08:03:47.163Z,98528.37
2018-11-28T08:04:50.038Z,98532.91
2018-11-28T08:05:53.629Z,98531.84
2018-11-28T08:06:56.802Z,98536.67
2018-11-28T08:07:59.912Z,98539.88
2018-11-28T08:09:04.171Z,98536.64
2018-11-28T08:10:07.683Z,98534.81
2018-11-28T08:11:10.878Z,98539.11
2018-11-28T08:12:14.799Z,98530.26
2018-11-28T08:13:17.879Z,98544.53
2018-11-28T08:14:20.902Z,98535.34
2018-11-28T08:15:23.884Z,98530.26
2018-11-28T08:16:26.774Z,98529.48
2018-11-28T08:17:30.619Z,98535.34
2018-11-28T08:18:34.186Z,98537.50
2018-11-28T08:19:37.771Z,98532.92
2018-11-28T08:20:41.304Z,98532.91
2018-11-28T08:21:46.467Z,98532.38
2018-11-28T08:22:52.440Z,98533.98
2018-11-28T08:23:56.365Z,98538.31
2018-11-28T08:24:59.958Z,98530.03
2018-11-28T08:26:02.929Z,98538.63
2018-11-28T08:27:05.795Z,98529.76
2018-11-28T08:28:08.921Z,98531.12
2018-11-28T08:29:12.106Z,98528.94
2018-11-28T08:30:15.388Z,98516.08
2018-11-28T08:31:20.061Z,98526.06
2018-11-28T08:32:25.575Z,98522.05
2018-11-28T08:33:31.473Z,98531.15
2018-11-28T08:34:34.822Z,98525.55
2018-11-28T08:35:37.919Z,98527.43
2018-11-28T08:36:41.819Z,98525.82
2018-11-28T08:37:45.699Z,98524.45
2018-11-28T08:38:49.109Z,98526.59
2018-11-28T08:39:52.049Z,98525.55
2018-11-28T08:40:55.265Z,98521.84
2018-11-28T08:41:59.346Z,98526.16
2018-11-28T08:43:02.416Z,98532.88
2018-11-28T08:44:05.806Z,98522.91
2018-11-28T08:45:09.058Z,98522.91
2018-11-28T08:46:12.232Z,98522.62
2018-11-28T08:47:15.688Z,98529.87
2018-11-28T08:48:20.845Z,98529.87
2018-11-28T08:49:24.945Z,98532.02
2018-11-28T08:50:28.472Z,98519.73
2018-11-28T08:51:31.557Z,98536.34
2018-11-28T08:52:34.550Z,98531.54
2018-11-28T08:53:37.741Z,98525.11
2018-11-28T08:54:40.804Z,98521.38
2018-11-28T08:55:43.688Z,98528.63
2018-11-28T08:56:47.023Z,98524.61
2018-11-28T08:57:51.251Z,98523.52
2018-11-28T08:58:54.246Z,98527.86
2018-11-28T08:59:57.127Z,98522.77
2018-11-28T09:01:00.001Z,98521.98
2018-11-28T09:03:05.079Z,98534.86
2018-11-28T09:04:09.611Z,98518.20
2018-11-28T09:05:12.543Z,98517.72
2018-11-28T09:06:15.489Z,98517.17
2018-11-28T09:07:18.414Z,98512.61
2018-11-28T09:08:23.010Z,98516.91
2018-11-28T09:09:25.913Z,98522.03
2018-11-28T09:10:28.802Z,98528.73
2018-11-28T09:11:31.712Z,98513.39
2018-11-28T09:12:34.629Z,98520.91
2018-11-28T09:13:38.441Z,98520.41
2018-11-28T09:14:42.468Z,98517.70
2018-11-28T09:15:45.353Z,98530.63
2018-11-28T09:16:48.379Z,98519.08
2018-11-28T09:17:51.324Z,98520.47
2018-11-28T09:19:00.582Z,98524.23
2018-11-28T09:20:03.491Z,98523.17
2018-11-28T09:21:07.612Z,98527.52
2018-11-28T09:22:10.593Z,98533.67
2018-11-28T09:23:14.433Z,98527.48
2018-11-28T09:24:17.338Z,98532.27
2018-11-28T09:25:23.195Z,98533.89
2018-11-28T09:26:26.872Z,98535.02
2018-11-28T09:27:30.129Z,98533.48
2018-11-28T09:28:34.602Z,98533.75
2018-11-28T09:29:38.275Z,98537.50
2018-11-28T09:30:41.693Z,98535.02
2018-11-28T09:31:45.563Z,98540.63
2018-11-28T09:32:49.960Z,98535.80
2018-11-28T09:33:53.448Z,98531.23
2018-11-28T09:34:58.852Z,98539.63
2018-11-28T09:36:01.764Z,98554.39
2018-11-28T09:37:04.684Z,98528.84
2018-11-28T09:38:07.563Z,98540.69
2018-11-28T09:39:11.078Z,98531.08
2018-11-28T09:40:14.466Z,98538.37
2018-11-28T09:41:18.259Z,98543.75
2018-11-28T09:42:21.720Z,98537.81
2018-11-28T09:43:24.667Z,98539.72
2018-11-28T09:44:27.561Z,98519.25
2018-11-28T09:45:30.642Z,98539.90
2018-11-28T09:46:35.024Z,98537.78
2018-11-28T09:47:38.216Z,98527.79
2018-11-28T09:48:41.219Z,98531.05
2018-11-28T09:49:44.134Z,98529.44
2018-11-28T09:50:47.032Z,98525.70
2018-11-28T09:51:49.922Z,98525.41
2018-11-28T09:52:52.861Z,98523.28
2018-11-28T09:53:56.088Z,98529.72
2018-11-28T09:54:58.997Z,98533.16
2018-11-28T09:56:02.064Z,98531.05
2018-11-28T09:57:05.978Z,98529.70
2018-11-28T09:58:10.498Z,98532.07
2018-11-28T09:59:14.216Z,98519.93
2018-11-28T10:00:17.136Z,98517.31
2018-11-28T10:01:20.675Z,98519.19
2018-11-28T10:02:23.544Z,98524.26
2018-11-28T10:03:26.421Z,98525.09
2018-11-28T10:04:29.327Z,98521.83
2018-11-28T10:05:37.428Z,98530.74
2018-11-28T10:06:40.556Z,98531.50
2018-11-28T10:07:44.935Z,98518.06
2018-11-28T10:08:48.344Z,98536.86
2018-11-28T10:09:52.212Z,98518.05
2018-11-28T10:10:55.531Z,98529.87
2018-11-28T10:11:58.878Z,98538.73
2018-11-28T10:13:01.840Z,98522.09
2018-11-28T10:14:04.908Z,98522.61
2018-11-28T10:15:09.054Z,98518.88
2018-11-28T10:16:12.003Z,98521.33
2018-11-28T10:17:15.155Z,98522.67
2018-11-28T10:18:18.838Z,98528.84
2018-11-28T10:19:21.714Z,98517.31
2018-11-28T10:20:24.936Z,98513.29
2018-11-28T10:21:27.984Z,98516.50
2018-11-28T10:22:31.372Z,98515.44
2018-11-28T10:23:35.952Z,98523.49
2018-11-28T10:24:39.666Z,98514.08
2018-11-28T10:25:42.603Z,98522.11
2018-11-28T10:26:46.083Z,98528.30
2018-11-28T10:27:49.088Z,98517.30
2018-11-28T10:28:52.091Z,98518.09
2018-11-28T10:29:55.212Z,98507.62
2018-11-28T10:30:58.672Z,98501.70
2018-11-28T10:32:01.831Z,98526.19
2018-11-28T10:33:05.605Z,98512.22
2018-11-28T10:34:09.613Z,98509.78
2018-11-28T10:35:13.492Z,98506.85
2018-11-28T10:36:16.857Z,98506.84
2018-11-28T10:37:22.741Z,98514.09
2018-11-28T10:38:26.600Z,98512.72
2018-11-28T10:39:29.791Z,98515.66
2018-11-28T10:40:32.845Z,98523.20
2018-11-28T10:41:37.750Z,98519.99
2018-11-28T10:42:42.609Z,98511.64
2018-11-28T10:43:47.269Z,98508.41
2018-11-28T10:44:50.561Z,98503.88
2018-11-28T10:45:53.760Z,98519.17
2018-11-28T10:46:57.080Z,98512.44
2018-11-28T10:48:00.037Z,98511.65
2018-11-28T10:49:03.290Z,98511.93
2018-11-28T10:50:07.143Z,98500.37
2018-11-28T10:51:12.086Z,98512.22
2018-11-28T10:52:15.549Z,98511.14
2018-11-28T10:53:19.521Z,98513.03
2018-11-28T10:54:22.839Z,98508.73
2018-11-28T10:55:26.350Z,98504.19
2018-11-28T10:56:29.921Z,98501.52
2018-11-28T10:57:33.438Z,98503.94
2018-11-28T10:58:36.619Z,98502.59
2018-11-28T10:59:39.997Z,98498.59
2018-11-28T11:00:47.697Z,98509.34
2018-11-28T11:01:53.182Z,98502.59
2018-11-28T11:03:02.527Z,98502.62
2018-11-28T11:04:11.443Z,98500.19
2018-11-28T11:05:20.318Z,98501.23
2018-11-28T11:06:28.346Z,98499.36
2018-11-28T11:07:37.532Z,98497.19
2018-11-28T11:08:45.322Z,98481.02
2018-11-28T11:09:53.704Z,98486.40
2018-11-28T11:11:01.705Z,98489.14
2018-11-28T11:12:12.340Z,98491.52
2018-11-28T11:14:40.035Z,98490.19
2018-11-28T11:15:49.123Z,98486.98
2018-11-28T11:18:02.229Z,98477.30
2018-11-28T11:19:04.800Z,98480.53
2018-11-28T11:20:08.387Z,98487.01
2018-11-28T11:21:11.559Z,98480.25
2018-11-28T11:22:15.773Z,98481.33
2018-11-28T11:23:19.052Z,98488.58
2018-11-28T11:24:22.335Z,98488.33
2018-11-28T11:25:28.251Z,98479.70
2018-11-28T11:26:40.980Z,98473.78
2018-11-28T11:27:45.146Z,98469.98
2018-11-28T11:28:48.897Z,98475.42
2018-11-28T11:29:52.132Z,98467.60
2018-11-28T11:42:45.544Z,98459.80
2018-11-28T11:43:48.656Z,98456.27
2018-11-28T11:44:51.606Z,98469.48
2018-11-28T11:45:54.901Z,98466.27
2018-11-28T11:46:59.475Z,98460.87
2018-11-28T11:48:03.203Z,98472.71
2018-11-28T11:49:06.732Z,98460.32
2018-11-28T11:50:11.157Z,98457.92
2018-11-28T11:51:15.127Z,98446.63
2018-11-28T11:52:18.393Z,98460.34
2018-11-28T11:53:22.533Z,98465.44
2018-11-28T11:54:26.169Z,98467.33
2018-11-28T11:55:34.121Z,98460.56
2018-11-28T11:56:37.233Z,98463.27
2018-11-28T11:57:40.866Z,98464.62
2018-11-28T11:58:43.970Z,98458.70
2018-11-28T11:59:47.039Z,98455.98
2018-11-28T12:00:50.535Z,98457.32
2018-11-28T12:01:54.857Z,98449.55
2018-11-28T12:02:56.962Z,98448.98
2018-11-28T12:04:01.632Z,98452.75
2018-11-28T12:05:05.319Z,98454.37
2018-11-28T12:06:08.317Z,98455.95
2018-11-28T12:07:12.101Z,98456.00
2018-11-28T12:08:15.898Z,98450.62
2018-11-28T12:09:19.726Z,98450.89
2018-11-28T12:10:22.716Z,98453.31
2018-11-28T12:11:25.649Z,98442.53
2018-11-28T12:12:29.211Z,98443.62
2018-11-28T12:13:32.848Z,98449.27
2018-11-28T12:14:37.645Z,98451.15
2018-11-28T12:15:42.391Z,98452.78
2018-11-28T12:16:46.284Z,98445.00
2018-11-28T12:17:51.633Z,98447.94
2018-11-28T12:18:55.363Z,98428.01
2018-11-28T12:19:58.930Z,98434.99
2018-11-28T12:21:02.094Z,98435.23
2018-11-28T12:22:05.381Z,98434.45
2018-11-28T12:23:08.404Z,98447.36
2018-11-28T12:24:11.616Z,98444.69
2018-11-28T12:25:15.096Z,98437.97
2018-11-28T12:26:18.378Z,98461.11
2018-11-28T12:27:22.330Z,98454.66
2018-11-28T12:28:26.518Z,98444.17
2018-11-28T12:29:30.895Z,98445.78
2018-11-28T12:30:35.283Z,98447.36
2018-11-28T12:31:38.366Z,98455.95
2018-11-28T12:32:42.967Z,98444.42
2018-11-28T12:33:46.043Z,98439.84
2018-11-28T12:34:50.470Z,98436.34
2018-11-28T12:35:53.446Z,98450.08
2018-11-28T12:36:57.126Z,98432.84
2018-11-28T12:38:02.460Z,98436.88
2018-11-28T12:39:06.114Z,98443.34
2018-11-28T12:40:09.243Z,98435.54
2018-11-28T12:41:13.387Z,98435.80
2018-11-28T12:42:16.800Z,98433.09
2018-11-28T12:43:19.908Z,98442.23
2018-11-28T12:44:24.247Z,98434.44
2018-11-28T12:45:28.055Z,98437.16
2018-11-28T12:46:33.414Z,98431.20
2018-11-28T12:47:39.058Z,98430.41
2018-11-28T12:48:43.051Z,98431.73
2018-11-28T12:49:47.787Z,98433.91
2018-11-28T12:50:52.556Z,98440.14
2018-11-28T12:51:56.143Z,98438.25
2018-11-28T12:52:59.467Z,98425.59
2018-11-28T12:54:02.495Z,98429.09
2018-11-28T12:55:07.791Z,98430.72
2018-11-28T12:56:11.726Z,98430.44
2018-11-28T12:57:16.138Z,98428.25
2018-11-28T12:58:20.779Z,98435.26